Flight Track Log - Related Links

Times and Time Zones

All times are in EDT time to prevent confusion due to time zone crossing. See the UAL274 flight status page for this flight to view local times or setup timezone preferences in your user account.

Time Position Orientation Groundspeed Altitude Reporting Facility
EDT Latitude Longitude Course Direction KTS MPH feet Rate Location/Type
Mon 01:51:51 PM 39.8333 -104.8167 263° West 230 265 8,500  Level Denver TRACON
Mon 01:52:46 PM 39.8394 -104.8944 276° West 253 291 10,600 1,949 Climbing Denver Center
Mon 01:53:00 PM 39.7446 -105.0616 257° West  Level Estimated
Mon 01:53:48 PM 39.8378 -105.0083 269° West 313 360 12,300  Level Denver Center
Mon 01:54:00 PM 39.7052 -105.1908 260° West  Level Estimated
Mon 01:54:50 PM 39.8108 -105.1400 255° West 350 403 16,000  Level Denver Center
Mon 01:55:00 PM 39.6658 -105.3198 270° West  Level Estimated
Mon 01:55:52 PM 39.7833 -105.2667 254° West 368 423 17,700  Level Denver Center
Mon 01:56:00 PM 39.6262 -105.4487 270° West  Level Estimated
Mon 01:56:55 PM 39.7539 -105.4061 255° West 399 459 19,500  Level Denver Center
Mon 01:57:00 PM 39.5864 -105.5774 263° West  Level Estimated
Mon 01:57:57 PM 39.7192 -105.5669 254° West 427 491 21,600  Level Denver Center
Mon 01:58:59 PM 39.6917 -105.7236 257° West 445 512 23,600 1,839 Climbing Denver Center
Mon 02:00:01 PM 39.6750 -105.8906 263° West 439 505 25,400 1,694 Climbing Denver Center
Mon 02:01:03 PM 39.6553 -106.0556 261° West 461 531 27,100 1,548 Climbing Denver Center
Mon 02:02:05 PM 39.6381 -106.2136 262° West 471 542 28,600 1,887 Climbing Denver Center
Mon 02:03:07 PM 39.6064 -106.3789 256° West 473 544 31,000 1,984 Climbing Denver Center
Mon 02:04:09 PM 39.5489 -106.5542 247° West 470 541 32,700 1,452 Climbing Denver Center
Mon 02:05:11 PM 39.4933 -106.7253 247° West 461 531 34,000 1,258 Climbing Denver Center
Mon 02:06:13 PM 39.4447 -106.8700 247° West 459 528 35,300 968 Climbing Denver Center
Mon 02:07:15 PM 39.4003 -107.0411 251° West 452 520 36,000 339 Climbing Denver Center
Mon 02:08:17 PM 39.3653 -107.1864 253° West 446 513 36,000 435 Level Denver Center
Mon 02:09:19 PM 39.3222 -107.3569 252° West 446 513 36,900 823 Climbing Denver Center
Mon 02:10:21 PM 39.2808 -107.5025 250° West 450 518 37,700 532 Climbing Denver Center
Mon 02:11:23 PM 39.2294 -107.6683 248° West 445 512 38,000 145 Climbing Denver Center
Mon 02:12:25 PM 39.1856 -107.8114 248° West 446 513 38,000  Level Denver Center
Mon 02:13:27 PM 39.1411 -107.9556 248° West 450 518 38,000  Level Denver Center
Mon 02:14:29 PM 39.0892 -108.1222 248° West 449 517 38,000  Level Denver Center
Mon 02:15:31 PM 39.0444 -108.2650 248° West 448 516 38,000  Level Denver Center
Mon 02:16:33 PM 38.9917 -108.4356 248° West 456 525 38,000  Level Denver Center
Mon 02:17:35 PM 38.9469 -108.5792 248° West 452 520 38,000  Level Denver Center
Mon 02:18:38 PM 38.8936 -108.7458 248° West 451 519 38,000  Level Denver Center
Mon 02:19:40 PM 38.8478 -108.8889 248° West 451 519 38,000  Level Denver Center
Mon 02:20:42 PM 38.7944 -109.0556 248° West 451 519 38,000  Level Denver Center
Mon 02:21:44 PM 38.7481 -109.1983 247° West 454 522 38,000  Level Denver Center
Mon 02:22:46 PM 38.7022 -109.3414 248° West 453 521 38,000  Level Denver Center
Mon 02:23:48 PM 38.6475 -109.5069 247° West 452 520 38,000  Level Denver Center
Mon 02:24:50 PM 38.6019 -109.6478 248° West 448 516 38,000  Level Denver Center
Mon 02:25:52 PM 38.5364 -109.8097 243° Southwest 461 531 38,000  Level Denver Center
Mon 02:26:54 PM 38.4783 -109.9417 241° Southwest 446 513 38,000 -194 Level Denver Center
Mon 02:27:56 PM 38.4128 -110.0964 242° Southwest 444 511 37,600 -629 Descending Denver Center
Mon 02:28:58 PM 38.3561 -110.2286 241° Southwest 444 511 36,700 -774 Descending Denver Center
Mon 02:30:00 PM 38.2906 -110.3819 241° Southwest 441 507 36,000 -581 Descending Denver Center
Mon 02:31:02 PM 38.2322 -110.5169 241° Southwest 452 520 35,500 -944 Descending Denver Center
Mon 02:31:48 PM 38.1836 -110.6300 241° Southwest 453 521 34,300 -1,333 Descending Salt Lake Center
Mon 02:32:50 PM 38.1128 -110.7883 240° Southwest 460 529 33,100 -1,056 Descending Salt Lake Center
Mon 02:33:53 PM 38.0525 -110.9242 241° Southwest 461 531 32,100 -528 Descending Salt Lake Center
Mon 02:34:55 PM 37.9917 -111.0594 240° Southwest 462 532 32,000 -48 Descending Salt Lake Center
Mon 02:35:57 PM 37.9283 -111.2019 241° Southwest 464 534 32,000  Level Salt Lake Center
Mon 02:36:59 PM 37.8511 -111.3714 240° Southwest 463 533 32,000  Level Salt Lake Center
Mon 02:38:01 PM 37.7889 -111.5119 241° Southwest 460 529 32,000  Level Salt Lake Center
Mon 02:39:03 PM 37.7247 -111.6517 240° Southwest 460 529 32,000  Level Salt Lake Center
Mon 02:40:05 PM 37.6606 -111.7908 240° Southwest 459 528 32,000  Level Salt Lake Center
Mon 02:41:07 PM 37.5967 -111.9317 240° Southwest 462 532 32,000  Level Salt Lake Center
Mon 02:42:09 PM 37.5317 -112.0731 240° Southwest 464 534 32,000  Level Salt Lake Center
Mon 02:42:51 PM 37.4803 -112.1839 240° Southwest 460 529 32,000  Level Los Angeles Center
Mon 02:43:53 PM 37.4156 -112.3247 240° Southwest 462 532 32,000  Level Los Angeles Center
Mon 02:45:07 PM 37.3494 -112.4653 239° Southwest 463 533 32,000  Level Los Angeles Center
Mon 02:46:10 PM 37.2703 -112.6325 239° Southwest 459 528 32,000  Level Los Angeles Center
Mon 02:47:12 PM 37.2050 -112.7728 240° Southwest 461 531 32,000 -97 Level Los Angeles Center
Mon 02:48:14 PM 37.1267 -112.9381 239° Southwest 457 526 31,800 -774 Descending Los Angeles Center
Mon 02:49:16 PM 37.0628 -113.0744 240° Southwest 454 522 30,400 -1,306 Descending Los Angeles Center
Mon 02:50:18 PM 36.9989 -113.2072 239° Southwest 446 513 29,100 -1,200 Descending Los Angeles Center
Mon 02:51:21 PM 36.9364 -113.3364 239° Southwest 436 502 27,900 -1,152 Descending Los Angeles Center
Mon 02:52:23 PM 36.8753 -113.4650 239° Southwest 429 494 26,700 -1,113 Descending Los Angeles Center
Mon 02:53:25 PM 36.8142 -113.5908 239° Southwest 425 489 25,600 -1,065 Descending Los Angeles Center
Mon 02:54:27 PM 36.7547 -113.7139 239° Southwest 418 481 24,500 -1,742 Descending Los Angeles Center
Mon 02:55:29 PM 36.6856 -113.8581 239° Southwest 408 470 22,000 -2,177 Descending Los Angeles Center
Mon 02:56:31 PM 36.6269 -113.9728 238° Southwest 397 457 20,000 -1,984 Descending Los Angeles Center
Mon 02:57:33 PM 36.5731 -114.0878 240° Southwest 387 445 17,900 -1,950 Descending Los Angeles Center
Mon 02:57:51 PM 36.5561 -114.1214 238° Southwest 386 444 17,400 -1,839 Descending Los Angeles Center
Mon 02:58:35 PM 36.5225 -114.1992 242° Southwest 375 432 16,000 -2,047 Descending Los Angeles Center
Mon 02:59:16 PM 36.4847 -114.2856 241° Southwest 368 423 14,500 -2,032 Descending Los Angeles Center
Mon 02:59:37 PM 36.4703 -114.3167 240° Southwest 365 420 13,900 -1,855 Descending Los Angeles Center
Mon 03:00:11 PM 36.4397 -114.3842 241° Southwest 359 413 12,800 -1,524 Descending Los Angeles Center
Mon 03:00:40 PM 36.4208 -114.4222 238° Southwest 354 407 12,300 -787 Descending Los Angeles Center
Mon 03:01:12 PM 36.3889 -114.4764 234° Southwest 327 376 12,000 -290 Descending Los Angeles Center
Mon 03:01:42 PM 36.3567 -114.4886 197° South 313 360 12,000  Level Los Angeles Center
Mon 03:02:07 PM 36.3103 -114.5031 194° South 314 361 12,000  Level Los Angeles Center
Mon 03:02:44 PM 36.2708 -114.5106 189° South 313 360 12,000 -152 Level Los Angeles Center
Mon 03:03:26 PM 36.2011 -114.5081 178° South 303 349 11,800 -677 Descending Los Angeles Center
Mon 03:03:46 PM 36.1672 -114.5019 172° South 311 358 11,300 -1,500 Descending Los Angeles Center
Mon 03:04:14 PM 36.1269 -114.5147 194° South 310 357 10,600 -1,355 Descending Los Angeles Center
Mon 03:04:48 PM 36.0986 -114.5503 225° Southwest 300 345 9,900 -1,355 Descending Los Angeles Center
Mon 03:05:16 PM 36.0772 -114.5928 238° Southwest 296 341 9,200 -892 Descending Los Angeles Center
Mon 03:06:02 PM 36.0717 -114.6406 262° West 284 327 8,800 -455 Descending Los Angeles Center
Mon 03:06:22 PM 36.0725 -114.6983 271° West 257 296 8,700 -571 Descending Los Angeles Center
Mon 03:07:05 PM 36.0714 -114.7408 268° West 246 283 8,200 -885 Descending Los Angeles Center
Mon 03:07:23 PM 36.0717 -114.7731 271° West 225 259 7,800 -787 Descending Los Angeles Center
Mon 03:08:06 PM 36.0708 -114.8003 268° West 230 265 7,400 -1,082 Descending Los Angeles Center
Mon 03:08:24 PM 36.0728 -114.8472 273° West 215 247 6,700 -1,048 Descending Los Angeles Center
Mon 03:09:09 PM 36.0733 -114.8853 271° West 217 250 6,300 -984 Descending Los Angeles Center
Mon 03:09:25 PM 36.0725 -114.9139 268° West 194 223 5,700 -1,645 Descending Los Angeles Center
Mon 03:10:11 PM 36.0728 -114.9647 270° West 202 232 4,600 -1,418 Descending Los Angeles Center
Mon 03:10:20 PM 36.0733 -114.9775 273° West 200 230 4,400 -1,065 Descending Los Angeles Center
Mon 03:11:13 PM 36.0731 -115.0297 270° West 195 224 3,500 -1,082 Descending Los Angeles Center
Mon 03:11:21 PM 36.0744 -115.0411 279° West 186 214 3,300 -677 Descending Los Angeles Center
Mon 03:12:15 PM 36.0725 -115.0775 266° West 187 215 2,800 -716 Descending Los Angeles Center
Mon 03:12:28 PM 36.0722 -115.1003 269° West 142 163 2,500 -762 Descending Los Angeles Center
Mon 03:13:18 PM 36.0736 -115.1344 273° West 157 181 2,000 -600 Descending Los Angeles Center

Login

Don't have an account? Register now (free) for customized features, flight alerts, and more!